QAF182 LRCL-LIRA
Flight info
| Callsign | QAF182 |
|---|---|
| Flight time | 1h 38m |
| Altitude | 40000 |
| Route | ELRO1M ELROM DCT DIRER DCT PEVON DCT VELUG/N0337F190 Z924 MOPUV MOPU4G |
| Aircraft | A332/H-SDE3GHIJ2J3J5M1RVWXYZ/LB2D1 |
Departure
| Time | 2026-05-07 02:02 |
|---|---|
| Airport | Avram Iancu Cluj International Airport (LRCL) |
Arrival
| Time | 2026-05-07 03:40 |
|---|---|
| Airport | Ciampino–G. B. Pastine International Airport (LIRA) |
| Time | Latitude | Longitude | Altitude | Speed | Heading |
|---|---|---|---|---|---|
| 2026-05-07 01:19 | 46.78539 | 23.69271 | 1036 ft | 0 kts | 256° |
| 2026-05-07 01:53 | 46.78540 | 23.69278 | 1036 ft | 2 kts | 274° |
| 2026-05-07 01:54 | 46.78539 | 23.69299 | 1036 ft | 2 kts | 280° |
| 2026-05-07 01:54 | 46.78535 | 23.69320 | 1036 ft | 2 kts | 300° |
| 2026-05-07 01:54 | 46.78526 | 23.69338 | 1036 ft | 2 kts | 316° |
| 2026-05-07 01:54 | 46.78514 | 23.69351 | 1036 ft | 2 kts | 334° |
| 2026-05-07 01:55 | 46.78505 | 23.69357 | 1036 ft | 0 kts | 346° |
| 2026-05-07 01:55 | 46.78503 | 23.69358 | 1036 ft | 0 kts | 346° |
| 2026-05-07 01:57 | 46.78508 | 23.69356 | 1036 ft | 1 kts | 346° |
| 2026-05-07 01:57 | 46.78528 | 23.69349 | 1036 ft | 7 kts | 346° |
| 2026-05-07 01:57 | 46.78596 | 23.69301 | 1036 ft | 12 kts | 295° |
| 2026-05-07 01:58 | 46.78587 | 23.69158 | 1036 ft | 14 kts | 259° |
| 2026-05-07 01:58 | 46.78566 | 23.69004 | 1037 ft | 16 kts | 260° |
| 2026-05-07 01:58 | 46.78544 | 23.68839 | 1037 ft | 17 kts | 257° |
| 2026-05-07 01:58 | 46.78520 | 23.68667 | 1038 ft | 17 kts | 259° |
| 2026-05-07 01:59 | 46.78497 | 23.68486 | 1039 ft | 18 kts | 259° |
| 2026-05-07 01:59 | 46.78470 | 23.68301 | 1041 ft | 18 kts | 258° |
| 2026-05-07 01:59 | 46.78444 | 23.68112 | 1042 ft | 19 kts | 260° |
| 2026-05-07 01:59 | 46.78418 | 23.67919 | 1043 ft | 18 kts | 258° |
| 2026-05-07 02:00 | 46.78393 | 23.67732 | 1044 ft | 18 kts | 261° |
| 2026-05-07 02:00 | 46.78365 | 23.67539 | 1045 ft | 19 kts | 258° |
| 2026-05-07 02:00 | 46.78340 | 23.67362 | 1046 ft | 16 kts | 258° |
| 2026-05-07 02:00 | 46.78376 | 23.67206 | 1047 ft | 17 kts | 313° |
| 2026-05-07 02:01 | 46.78456 | 23.67166 | 1047 ft | 12 kts | 51° |
| 2026-05-07 02:01 | 46.78468 | 23.67203 | 1047 ft | 0 kts | 69° |
| 2026-05-07 02:01 | 46.78552 | 23.67557 | 1045 ft | 76 kts | 72° |
| 2026-05-07 02:02 | 46.78797 | 23.68672 | 1041 ft | 153 kts | 72° |
| 2026-05-07 02:02 | 46.79153 | 23.70249 | 1674 ft | 165 kts | 71° |
| 2026-05-07 02:02 | 46.79510 | 23.71805 | 2510 ft | 157 kts | 73° |
| 2026-05-07 02:02 | 46.79848 | 23.73317 | 2965 ft | 162 kts | 73° |
| 2026-05-07 02:03 | 46.80210 | 23.74931 | 3313 ft | 174 kts | 74° |
| 2026-05-07 02:03 | 46.80600 | 23.76674 | 3634 ft | 189 kts | 73° |
| 2026-05-07 02:03 | 46.81024 | 23.78562 | 3941 ft | 204 kts | 73° |
| 2026-05-07 02:03 | 46.81479 | 23.80594 | 4248 ft | 220 kts | 73° |
| 2026-05-07 02:04 | 46.81969 | 23.82777 | 4795 ft | 232 kts | 73° |
| 2026-05-07 02:04 | 46.82468 | 23.85007 | 5670 ft | 231 kts | 73° |
| 2026-05-07 02:04 | 46.82970 | 23.87224 | 6392 ft | 235 kts | 69° |
| 2026-05-07 02:04 | 46.83919 | 23.89150 | 7078 ft | 240 kts | 36° |
| 2026-05-07 02:05 | 46.85426 | 23.90040 | 7840 ft | 238 kts | 2° |
| 2026-05-07 02:05 | 46.87033 | 23.89615 | 8581 ft | 236 kts | 329° |
| 2026-05-07 02:05 | 46.88345 | 23.88211 | 9327 ft | 236 kts | 321° |
| 2026-05-07 02:05 | 46.89685 | 23.86815 | 10040 ft | 240 kts | 322° |
| 2026-05-07 02:06 | 46.91080 | 23.85414 | 10800 ft | 243 kts | 323° |
| 2026-05-07 02:06 | 46.92473 | 23.84032 | 11515 ft | 246 kts | 323° |
| 2026-05-07 02:06 | 46.93884 | 23.82634 | 12180 ft | 248 kts | 323° |
| 2026-05-07 02:06 | 46.95318 | 23.81217 | 12860 ft | 251 kts | 323° |
| 2026-05-07 02:07 | 46.96774 | 23.79777 | 13520 ft | 255 kts | 323° |
| 2026-05-07 02:07 | 46.99704 | 23.76872 | 14845 ft | 259 kts | 321° |
| 2026-05-07 02:07 | 47.00878 | 23.74923 | 15427 ft | 257 kts | 292° |
| 2026-05-07 02:08 | 47.01221 | 23.72441 | 16058 ft | 252 kts | 263° |
| 2026-05-07 02:08 | 47.00666 | 23.70037 | 16649 ft | 253 kts | 234° |
| 2026-05-07 02:08 | 46.99560 | 23.68044 | 17272 ft | 255 kts | 231° |
| 2026-05-07 02:08 | 46.98411 | 23.66046 | 17848 ft | 259 kts | 230° |
| 2026-05-07 02:09 | 46.97236 | 23.64048 | 18451 ft | 261 kts | 230° |
| 2026-05-07 02:09 | 46.96035 | 23.62019 | 19053 ft | 263 kts | 230° |
| 2026-05-07 02:09 | 46.94831 | 23.59988 | 19624 ft | 266 kts | 230° |
| 2026-05-07 02:09 | 46.93623 | 23.57952 | 20214 ft | 267 kts | 230° |
| 2026-05-07 02:10 | 46.92376 | 23.55855 | 20527 ft | 280 kts | 230° |
| 2026-05-07 02:10 | 46.91065 | 23.53650 | 20690 ft | 298 kts | 230° |
| 2026-05-07 02:10 | 46.89675 | 23.51316 | 20875 ft | 316 kts | 230° |
| 2026-05-07 02:10 | 46.88186 | 23.48816 | 21016 ft | 333 kts | 230° |
| 2026-05-07 02:11 | 46.86610 | 23.46176 | 21186 ft | 350 kts | 230° |
| 2026-05-07 02:11 | 46.84977 | 23.43438 | 21339 ft | 367 kts | 230° |
| 2026-05-07 02:11 | 46.83276 | 23.40593 | 21496 ft | 382 kts | 230° |
| 2026-05-07 02:11 | 46.81480 | 23.37591 | 21639 ft | 397 kts | 230° |
| 2026-05-07 02:12 | 46.79666 | 23.34458 | 21778 ft | 410 kts | 234° |
| 2026-05-07 02:12 | 46.78391 | 23.30691 | 22102 ft | 417 kts | 252° |
| 2026-05-07 02:12 | 46.77781 | 23.26601 | 22598 ft | 420 kts | 257° |
| 2026-05-07 02:12 | 46.77146 | 23.22415 | 23130 ft | 422 kts | 257° |
| 2026-05-07 02:13 | 46.76511 | 23.18260 | 23620 ft | 425 kts | 257° |
| 2026-05-07 02:13 | 46.75861 | 23.14034 | 24171 ft | 427 kts | 257° |
| 2026-05-07 02:13 | 46.75210 | 23.09811 | 24727 ft | 429 kts | 257° |
| 2026-05-07 02:13 | 46.74331 | 23.05698 | 25173 ft | 431 kts | 245° |
| 2026-05-07 02:14 | 46.72681 | 23.02070 | 25541 ft | 436 kts | 230° |
| 2026-05-07 02:14 | 46.70378 | 22.99222 | 26011 ft | 437 kts | 213° |
| 2026-05-07 02:14 | 46.67793 | 22.96950 | 26391 ft | 441 kts | 214° |
| 2026-05-07 02:14 | 46.65188 | 22.94523 | 26850 ft | 443 kts | 214° |
| 2026-05-07 02:15 | 46.62629 | 22.92101 | 27331 ft | 445 kts | 214° |
| 2026-05-07 02:15 | 46.60024 | 22.89620 | 27755 ft | 448 kts | 215° |
| 2026-05-07 02:15 | 46.57416 | 22.87134 | 28176 ft | 451 kts | 215° |
| 2026-05-07 02:15 | 46.54782 | 22.84624 | 28624 ft | 453 kts | 215° |
| 2026-05-07 02:16 | 46.52125 | 22.82095 | 29062 ft | 455 kts | 215° |
| 2026-05-07 02:16 | 46.49456 | 22.79555 | 29460 ft | 457 kts | 215° |
| 2026-05-07 02:16 | 46.46807 | 22.77039 | 29948 ft | 457 kts | 215° |
| 2026-05-07 02:16 | 46.44141 | 22.74509 | 30519 ft | 454 kts | 216° |
| 2026-05-07 02:17 | 46.41499 | 22.72007 | 31115 ft | 452 kts | 216° |
| 2026-05-07 02:17 | 46.38888 | 22.69535 | 31671 ft | 450 kts | 216° |
| 2026-05-07 02:17 | 46.36243 | 22.67033 | 32202 ft | 449 kts | 216° |
| 2026-05-07 02:17 | 46.33630 | 22.64567 | 32756 ft | 446 kts | 216° |
| 2026-05-07 02:18 | 46.31040 | 22.62122 | 33261 ft | 445 kts | 216° |
| 2026-05-07 02:18 | 46.28459 | 22.59691 | 33765 ft | 443 kts | 217° |
| 2026-05-07 02:18 | 46.25879 | 22.57263 | 34249 ft | 441 kts | 217° |
| 2026-05-07 02:18 | 46.23326 | 22.54863 | 34703 ft | 439 kts | 217° |
| 2026-05-07 02:19 | 46.20767 | 22.52456 | 35047 ft | 439 kts | 217° |
| 2026-05-07 02:19 | 46.18231 | 22.50079 | 35415 ft | 438 kts | 217° |
| 2026-05-07 02:19 | 46.15659 | 22.47667 | 35710 ft | 439 kts | 217° |
| 2026-05-07 02:19 | 46.13108 | 22.45278 | 36008 ft | 439 kts | 217° |
| 2026-05-07 02:20 | 46.10538 | 22.42876 | 36335 ft | 438 kts | 217° |
| 2026-05-07 02:20 | 46.07989 | 22.40496 | 36614 ft | 438 kts | 217° |
| 2026-05-07 02:20 | 46.05437 | 22.38114 | 36933 ft | 438 kts | 217° |
| 2026-05-07 02:20 | 46.02884 | 22.35737 | 37235 ft | 439 kts | 217° |
| 2026-05-07 02:21 | 46.00325 | 22.33355 | 37599 ft | 438 kts | 216° |
| 2026-05-07 02:21 | 45.97783 | 22.30991 | 37917 ft | 438 kts | 216° |
| 2026-05-07 02:21 | 45.95254 | 22.28643 | 38265 ft | 437 kts | 216° |
| 2026-05-07 02:21 | 45.92700 | 22.26273 | 38572 ft | 437 kts | 216° |
| 2026-05-07 02:22 | 45.90143 | 22.23903 | 38828 ft | 437 kts | 216° |
| 2026-05-07 02:22 | 45.87587 | 22.21539 | 39027 ft | 438 kts | 216° |
| 2026-05-07 02:22 | 45.85007 | 22.19153 | 39226 ft | 439 kts | 216° |
| 2026-05-07 02:22 | 45.82452 | 22.16795 | 39453 ft | 438 kts | 216° |
| 2026-05-07 02:23 | 45.79893 | 22.14433 | 39750 ft | 437 kts | 216° |
| 2026-05-07 02:23 | 45.77335 | 22.12077 | 39964 ft | 437 kts | 216° |
| 2026-05-07 02:23 | 45.72181 | 22.07334 | 39965 ft | 443 kts | 216° |
| 2026-05-07 02:24 | 45.66958 | 22.02540 | 39964 ft | 448 kts | 216° |
| 2026-05-07 02:24 | 45.61701 | 21.97725 | 39966 ft | 451 kts | 216° |
| 2026-05-07 02:25 | 45.56367 | 21.92853 | 39969 ft | 453 kts | 216° |
| 2026-05-07 02:25 | 45.51073 | 21.88025 | 39969 ft | 454 kts | 216° |
| 2026-05-07 02:26 | 45.45718 | 21.83157 | 39988 ft | 455 kts | 216° |
| 2026-05-07 02:26 | 45.40391 | 21.78321 | 39978 ft | 456 kts | 216° |
| 2026-05-07 02:27 | 45.35012 | 21.73453 | 39993 ft | 456 kts | 216° |
| 2026-05-07 02:27 | 45.29680 | 21.68636 | 39989 ft | 456 kts | 216° |
| 2026-05-07 02:28 | 45.24329 | 21.63813 | 39990 ft | 456 kts | 216° |
| 2026-05-07 02:28 | 45.18975 | 21.58996 | 39987 ft | 456 kts | 216° |
| 2026-05-07 02:29 | 45.13629 | 21.54200 | 39985 ft | 456 kts | 216° |
| 2026-05-07 02:29 | 45.08255 | 21.49388 | 39986 ft | 456 kts | 216° |
| 2026-05-07 02:30 | 45.02906 | 21.44610 | 39987 ft | 455 kts | 216° |
| 2026-05-07 02:30 | 44.98154 | 21.38976 | 39990 ft | 442 kts | 239° |
| 2026-05-07 02:31 | 44.96786 | 21.35134 | 40008 ft | 437 kts | 252° |
| 2026-05-07 02:31 | 44.95760 | 21.31075 | 39991 ft | 438 kts | 250° |
| 2026-05-07 02:31 | 44.93430 | 21.23109 | 39982 ft | 439 kts | 249° |
| 2026-05-07 02:32 | 44.91029 | 21.15151 | 39971 ft | 439 kts | 248° |
| 2026-05-07 02:32 | 44.88629 | 21.07255 | 39975 ft | 440 kts | 248° |
| 2026-05-07 02:33 | 44.86203 | 20.99304 | 39973 ft | 440 kts | 248° |
| 2026-05-07 02:33 | 44.83782 | 20.91388 | 39969 ft | 440 kts | 248° |
| 2026-05-07 02:34 | 44.81356 | 20.83484 | 39969 ft | 440 kts | 248° |
| 2026-05-07 02:34 | 44.78930 | 20.75602 | 39968 ft | 440 kts | 248° |
| 2026-05-07 02:35 | 44.76490 | 20.67702 | 39967 ft | 440 kts | 248° |
| 2026-05-07 02:35 | 44.74046 | 20.59813 | 39975 ft | 440 kts | 248° |
| 2026-05-07 02:36 | 44.71613 | 20.51986 | 39976 ft | 439 kts | 248° |
| 2026-05-07 02:36 | 44.69168 | 20.44140 | 39976 ft | 439 kts | 248° |
| 2026-05-07 02:37 | 44.66710 | 20.36276 | 39977 ft | 439 kts | 248° |
| 2026-05-07 02:37 | 44.64243 | 20.28405 | 39984 ft | 439 kts | 247° |
| 2026-05-07 02:38 | 44.61774 | 20.20554 | 39985 ft | 439 kts | 247° |
| 2026-05-07 02:38 | 44.59313 | 20.12757 | 39986 ft | 439 kts | 247° |
| 2026-05-07 02:39 | 44.56822 | 20.04883 | 39976 ft | 439 kts | 247° |
| 2026-05-07 02:39 | 44.54313 | 19.96977 | 39986 ft | 439 kts | 246° |
| 2026-05-07 02:40 | 44.51845 | 19.89223 | 39984 ft | 439 kts | 247° |
| 2026-05-07 02:40 | 44.49337 | 19.81369 | 39986 ft | 438 kts | 247° |
| 2026-05-07 02:41 | 44.46833 | 19.73548 | 39995 ft | 438 kts | 246° |
| 2026-05-07 02:41 | 44.44339 | 19.65787 | 39993 ft | 438 kts | 246° |
| 2026-05-07 02:42 | 44.41819 | 19.57963 | 39999 ft | 438 kts | 246° |
| 2026-05-07 02:42 | 44.39308 | 19.50194 | 39998 ft | 438 kts | 246° |
| 2026-05-07 02:43 | 44.36792 | 19.42429 | 40008 ft | 437 kts | 246° |
| 2026-05-07 02:43 | 44.34284 | 19.34711 | 40013 ft | 436 kts | 246° |
| 2026-05-07 02:44 | 44.31781 | 19.27032 | 40025 ft | 436 kts | 245° |
| 2026-05-07 02:44 | 44.29278 | 19.19377 | 40027 ft | 436 kts | 245° |
| 2026-05-07 02:45 | 44.26759 | 19.11691 | 40032 ft | 436 kts | 245° |
| 2026-05-07 02:45 | 44.24244 | 19.04046 | 40036 ft | 436 kts | 245° |
| 2026-05-07 02:46 | 44.21718 | 18.96386 | 40031 ft | 436 kts | 245° |
| 2026-05-07 02:46 | 44.19192 | 18.88747 | 40031 ft | 436 kts | 245° |
| 2026-05-07 02:47 | 44.16643 | 18.81065 | 40033 ft | 436 kts | 245° |
| 2026-05-07 02:47 | 44.14091 | 18.73390 | 40031 ft | 436 kts | 245° |
| 2026-05-07 02:48 | 44.11525 | 18.65699 | 40027 ft | 436 kts | 245° |
| 2026-05-07 02:48 | 44.08950 | 18.58002 | 40027 ft | 436 kts | 245° |
| 2026-05-07 02:49 | 44.06375 | 18.50325 | 40027 ft | 435 kts | 245° |
| 2026-05-07 02:49 | 44.03805 | 18.42687 | 40031 ft | 435 kts | 245° |
| 2026-05-07 02:50 | 44.01229 | 18.35052 | 40038 ft | 434 kts | 245° |
| 2026-05-07 02:50 | 43.98646 | 18.27418 | 40033 ft | 434 kts | 244° |
| 2026-05-07 02:51 | 43.96089 | 18.19883 | 40034 ft | 435 kts | 244° |
| 2026-05-07 02:51 | 43.93492 | 18.12254 | 40023 ft | 435 kts | 244° |
| 2026-05-07 02:52 | 43.90917 | 18.04709 | 40026 ft | 436 kts | 244° |
| 2026-05-07 02:52 | 43.88308 | 17.97083 | 40033 ft | 436 kts | 244° |
| 2026-05-07 02:53 | 43.85699 | 17.89482 | 40032 ft | 436 kts | 244° |
| 2026-05-07 02:53 | 43.83094 | 17.81912 | 40034 ft | 436 kts | 244° |
| 2026-05-07 02:54 | 43.80463 | 17.74285 | 40027 ft | 437 kts | 244° |
| 2026-05-07 02:54 | 43.77837 | 17.66702 | 40034 ft | 437 kts | 244° |
| 2026-05-07 02:55 | 43.75210 | 17.59133 | 40027 ft | 437 kts | 244° |
| 2026-05-07 02:55 | 43.72552 | 17.51494 | 40026 ft | 437 kts | 244° |
| 2026-05-07 02:56 | 43.69907 | 17.43912 | 40024 ft | 437 kts | 244° |
| 2026-05-07 02:56 | 43.67254 | 17.36333 | 40020 ft | 436 kts | 244° |
| 2026-05-07 02:57 | 43.64605 | 17.28783 | 40032 ft | 436 kts | 243° |
| 2026-05-07 02:57 | 43.61956 | 17.21258 | 40029 ft | 437 kts | 243° |
| 2026-05-07 02:58 | 43.59292 | 17.13707 | 40028 ft | 437 kts | 243° |
| 2026-05-07 02:58 | 43.56615 | 17.06141 | 40027 ft | 438 kts | 243° |
| 2026-05-07 02:59 | 43.53782 | 16.98748 | 40022 ft | 438 kts | 241° |
| 2026-05-07 02:59 | 43.50870 | 16.91406 | 40022 ft | 438 kts | 241° |
| 2026-05-07 03:00 | 43.47962 | 16.84087 | 40006 ft | 436 kts | 241° |
| 2026-05-07 03:00 | 43.45044 | 16.76761 | 40006 ft | 435 kts | 240° |
| 2026-05-07 03:01 | 43.42136 | 16.69480 | 40002 ft | 436 kts | 240° |
| 2026-05-07 03:01 | 43.39222 | 16.62201 | 39984 ft | 437 kts | 240° |
| 2026-05-07 03:02 | 43.36288 | 16.54893 | 39985 ft | 438 kts | 240° |
| 2026-05-07 03:02 | 43.33367 | 16.47634 | 39988 ft | 438 kts | 240° |
| 2026-05-07 03:03 | 43.30428 | 16.40352 | 39984 ft | 438 kts | 241° |
| 2026-05-07 03:03 | 43.27474 | 16.33045 | 39980 ft | 438 kts | 240° |
| 2026-05-07 03:04 | 43.24528 | 16.25783 | 39978 ft | 439 kts | 240° |
| 2026-05-07 03:04 | 43.21557 | 16.18471 | 39970 ft | 439 kts | 240° |
| 2026-05-07 03:05 | 43.18592 | 16.11197 | 39947 ft | 438 kts | 240° |
| 2026-05-07 03:05 | 43.15640 | 16.03973 | 39957 ft | 438 kts | 240° |
| 2026-05-07 03:06 | 43.12653 | 15.96683 | 39945 ft | 438 kts | 240° |
| 2026-05-07 03:06 | 43.09689 | 15.89462 | 39938 ft | 439 kts | 240° |
| 2026-05-07 03:07 | 43.06710 | 15.82223 | 39929 ft | 439 kts | 240° |
| 2026-05-07 03:07 | 43.03715 | 15.74971 | 39946 ft | 439 kts | 240° |
| 2026-05-07 03:08 | 43.00704 | 15.67693 | 39920 ft | 439 kts | 240° |
| 2026-05-07 03:08 | 42.97718 | 15.60495 | 39924 ft | 439 kts | 240° |
| 2026-05-07 03:09 | 42.94700 | 15.53236 | 39919 ft | 439 kts | 240° |
| 2026-05-07 03:09 | 42.91693 | 15.46019 | 39902 ft | 439 kts | 240° |
| 2026-05-07 03:10 | 42.88679 | 15.38811 | 39930 ft | 439 kts | 240° |
| 2026-05-07 03:10 | 42.85661 | 15.31610 | 39922 ft | 440 kts | 239° |
| 2026-05-07 03:11 | 42.82620 | 15.24370 | 39943 ft | 440 kts | 239° |
| 2026-05-07 03:11 | 42.79596 | 15.17192 | 39940 ft | 441 kts | 239° |
| 2026-05-07 03:12 | 42.76542 | 15.09959 | 39936 ft | 441 kts | 239° |
| 2026-05-07 03:12 | 42.73484 | 15.02733 | 39926 ft | 441 kts | 240° |
| 2026-05-07 03:13 | 42.70444 | 14.95570 | 39928 ft | 441 kts | 240° |
| 2026-05-07 03:13 | 42.67388 | 14.88359 | 39928 ft | 441 kts | 240° |
| 2026-05-07 03:14 | 42.64375 | 14.81104 | 39951 ft | 441 kts | 240° |
| 2026-05-07 03:15 | 42.59855 | 14.70267 | 39954 ft | 436 kts | 240° |
| 2026-05-07 03:15 | 42.58385 | 14.66743 | 39932 ft | 420 kts | 240° |
| 2026-05-07 03:15 | 42.56961 | 14.63335 | 39938 ft | 411 kts | 240° |
| 2026-05-07 03:16 | 42.54136 | 14.56585 | 39953 ft | 416 kts | 240° |
| 2026-05-07 03:16 | 42.51276 | 14.49768 | 39963 ft | 420 kts | 240° |
| 2026-05-07 03:17 | 42.48395 | 14.42917 | 39952 ft | 417 kts | 240° |
| 2026-05-07 03:17 | 42.45515 | 14.36085 | 39952 ft | 418 kts | 240° |
| 2026-05-07 03:18 | 42.42627 | 14.29251 | 39967 ft | 418 kts | 240° |
| 2026-05-07 03:18 | 42.39737 | 14.22431 | 39955 ft | 418 kts | 240° |
| 2026-05-07 03:18 | 42.38294 | 14.19031 | 39352 ft | 424 kts | 240° |
| 2026-05-07 03:19 | 42.36839 | 14.15605 | 38447 ft | 426 kts | 239° |
| 2026-05-07 03:19 | 42.35352 | 14.12116 | 37551 ft | 427 kts | 239° |
| 2026-05-07 03:19 | 42.33876 | 14.08658 | 36542 ft | 429 kts | 239° |
| 2026-05-07 03:19 | 42.32366 | 14.05123 | 35764 ft | 430 kts | 239° |
| 2026-05-07 03:20 | 42.30878 | 14.01646 | 34945 ft | 432 kts | 238° |
| 2026-05-07 03:20 | 42.29386 | 13.98164 | 34128 ft | 432 kts | 238° |
| 2026-05-07 03:20 | 42.27875 | 13.94647 | 33140 ft | 434 kts | 239° |
| 2026-05-07 03:20 | 42.26348 | 13.91087 | 32129 ft | 436 kts | 239° |
| 2026-05-07 03:21 | 42.24833 | 13.87565 | 30915 ft | 442 kts | 239° |
| 2026-05-07 03:21 | 42.23301 | 13.84003 | 29434 ft | 450 kts | 239° |
| 2026-05-07 03:21 | 42.21719 | 13.80330 | 28225 ft | 450 kts | 239° |
| 2026-05-07 03:21 | 42.20175 | 13.76745 | 27568 ft | 440 kts | 239° |
| 2026-05-07 03:22 | 42.18725 | 13.73143 | 26815 ft | 432 kts | 245° |
| 2026-05-07 03:22 | 42.17650 | 13.69369 | 25863 ft | 430 kts | 248° |
| 2026-05-07 03:22 | 42.16581 | 13.65574 | 24848 ft | 427 kts | 249° |
| 2026-05-07 03:22 | 42.15538 | 13.61871 | 24030 ft | 421 kts | 249° |
| 2026-05-07 03:23 | 42.14526 | 13.58285 | 23014 ft | 410 kts | 249° |
| 2026-05-07 03:23 | 42.13524 | 13.54743 | 21580 ft | 406 kts | 249° |
| 2026-05-07 03:23 | 42.12527 | 13.51222 | 20145 ft | 396 kts | 249° |
| 2026-05-07 03:23 | 42.11587 | 13.47909 | 19437 ft | 365 kts | 249° |
| 2026-05-07 03:24 | 42.10708 | 13.44813 | 19078 ft | 351 kts | 249° |
| 2026-05-07 03:24 | 42.09846 | 13.41784 | 18521 ft | 349 kts | 249° |
| 2026-05-07 03:24 | 42.08984 | 13.38759 | 18015 ft | 346 kts | 249° |
| 2026-05-07 03:24 | 42.08132 | 13.35770 | 17534 ft | 342 kts | 249° |
| 2026-05-07 03:25 | 42.07275 | 13.32769 | 17046 ft | 339 kts | 248° |
| 2026-05-07 03:25 | 42.06432 | 13.29823 | 16577 ft | 335 kts | 248° |
| 2026-05-07 03:25 | 42.05465 | 13.27036 | 16102 ft | 332 kts | 239° |
| 2026-05-07 03:25 | 42.04289 | 13.24409 | 15949 ft | 319 kts | 239° |
| 2026-05-07 03:26 | 42.03170 | 13.21892 | 15965 ft | 303 kts | 239° |
| 2026-05-07 03:26 | 42.02108 | 13.19505 | 15833 ft | 293 kts | 239° |
| 2026-05-07 03:26 | 42.01078 | 13.17188 | 15678 ft | 281 kts | 239° |
| 2026-05-07 03:26 | 42.00127 | 13.15010 | 15507 ft | 259 kts | 245° |
| 2026-05-07 03:27 | 41.99758 | 13.12713 | 15470 ft | 253 kts | 269° |
| 2026-05-07 03:27 | 42.00032 | 13.10355 | 15045 ft | 262 kts | 279° |
| 2026-05-07 03:27 | 42.00399 | 13.07953 | 14658 ft | 265 kts | 279° |
| 2026-05-07 03:27 | 42.00786 | 13.05525 | 14278 ft | 268 kts | 280° |
| 2026-05-07 03:28 | 42.01181 | 13.03069 | 13879 ft | 271 kts | 280° |
| 2026-05-07 03:28 | 42.01582 | 13.00587 | 13430 ft | 270 kts | 280° |
| 2026-05-07 03:28 | 42.01977 | 12.98139 | 13043 ft | 264 kts | 280° |
| 2026-05-07 03:28 | 42.02361 | 12.95759 | 12719 ft | 263 kts | 280° |
| 2026-05-07 03:29 | 42.02748 | 12.93350 | 12341 ft | 266 kts | 280° |
| 2026-05-07 03:29 | 42.03159 | 12.90882 | 11965 ft | 269 kts | 282° |
| 2026-05-07 03:29 | 42.03598 | 12.88418 | 11600 ft | 271 kts | 282° |
| 2026-05-07 03:29 | 42.04034 | 12.85951 | 11205 ft | 269 kts | 282° |
| 2026-05-07 03:30 | 42.04460 | 12.83544 | 10862 ft | 259 kts | 282° |
| 2026-05-07 03:30 | 42.04874 | 12.81202 | 10620 ft | 257 kts | 282° |
| 2026-05-07 03:30 | 42.05287 | 12.78851 | 10309 ft | 258 kts | 282° |
| 2026-05-07 03:30 | 42.05696 | 12.76534 | 9985 ft | 256 kts | 282° |
| 2026-05-07 03:31 | 42.06105 | 12.74207 | 9972 ft | 251 kts | 282° |
| 2026-05-07 03:31 | 42.06501 | 12.71955 | 9983 ft | 243 kts | 282° |
| 2026-05-07 03:31 | 42.06887 | 12.69753 | 9619 ft | 249 kts | 282° |
| 2026-05-07 03:31 | 42.07291 | 12.67441 | 9081 ft | 255 kts | 282° |
| 2026-05-07 03:32 | 42.07696 | 12.65128 | 8605 ft | 256 kts | 282° |
| 2026-05-07 03:32 | 42.08103 | 12.62797 | 8111 ft | 258 kts | 282° |
| 2026-05-07 03:32 | 42.08518 | 12.60416 | 7601 ft | 259 kts | 282° |
| 2026-05-07 03:32 | 42.08919 | 12.58111 | 7098 ft | 253 kts | 282° |
| 2026-05-07 03:33 | 42.09293 | 12.55804 | 6614 ft | 249 kts | 274° |
| 2026-05-07 03:33 | 42.09045 | 12.53516 | 6199 ft | 253 kts | 246° |
| 2026-05-07 03:33 | 42.07972 | 12.51626 | 5668 ft | 262 kts | 218° |
| 2026-05-07 03:33 | 42.06291 | 12.50583 | 5233 ft | 267 kts | 197° |
| 2026-05-07 03:34 | 42.04517 | 12.49799 | 4766 ft | 270 kts | 200° |
| 2026-05-07 03:34 | 42.02785 | 12.48966 | 4286 ft | 259 kts | 200° |
| 2026-05-07 03:34 | 42.01105 | 12.48144 | 3892 ft | 247 kts | 200° |
| 2026-05-07 03:34 | 41.99513 | 12.47368 | 3526 ft | 237 kts | 197° |
| 2026-05-07 03:35 | 41.97971 | 12.47275 | 3525 ft | 216 kts | 166° |
| 2026-05-07 03:35 | 41.96592 | 12.48015 | 3445 ft | 203 kts | 155° |
| 2026-05-07 03:35 | 41.95381 | 12.48844 | 3388 ft | 183 kts | 153° |
| 2026-05-07 03:35 | 41.94318 | 12.49591 | 3412 ft | 162 kts | 153° |
| 2026-05-07 03:36 | 41.93353 | 12.50251 | 3139 ft | 144 kts | 153° |
| 2026-05-07 03:36 | 41.92488 | 12.50842 | 2916 ft | 136 kts | 153° |
| 2026-05-07 03:36 | 41.91651 | 12.51419 | 2743 ft | 134 kts | 153° |
| 2026-05-07 03:36 | 41.90816 | 12.51994 | 2570 ft | 134 kts | 152° |
| 2026-05-07 03:37 | 41.89972 | 12.52576 | 2393 ft | 135 kts | 152° |
| 2026-05-07 03:37 | 41.89139 | 12.53150 | 2217 ft | 135 kts | 152° |
| 2026-05-07 03:37 | 41.88300 | 12.53727 | 2037 ft | 134 kts | 152° |
| 2026-05-07 03:37 | 41.87461 | 12.54304 | 1854 ft | 135 kts | 152° |
| 2026-05-07 03:38 | 41.86627 | 12.54878 | 1672 ft | 133 kts | 152° |
| 2026-05-07 03:38 | 41.85794 | 12.55451 | 1490 ft | 134 kts | 152° |
| 2026-05-07 03:38 | 41.84962 | 12.56025 | 1309 ft | 134 kts | 152° |
| 2026-05-07 03:38 | 41.84132 | 12.56598 | 1128 ft | 133 kts | 152° |
| 2026-05-07 03:39 | 41.83310 | 12.57167 | 945 ft | 133 kts | 152° |
| 2026-05-07 03:39 | 41.82462 | 12.57722 | 759 ft | 136 kts | 151° |
| 2026-05-07 03:39 | 41.81627 | 12.58308 | 596 ft | 134 kts | 151° |
| 2026-05-07 03:39 | 41.80795 | 12.58882 | 405 ft | 135 kts | 150° |
| 2026-05-07 03:40 | 41.80019 | 12.59427 | 393 ft | 106 kts | 153° |
| 2026-05-07 03:40 | 41.79543 | 12.59754 | 416 ft | 47 kts | 153° |
| 2026-05-07 03:40 | 41.79342 | 12.59896 | 424 ft | 24 kts | 153° |
| 2026-05-07 03:40 | 41.79182 | 12.60004 | 429 ft | 25 kts | 153° |
| 2026-05-07 03:41 | 41.79087 | 12.60063 | 432 ft | 12 kts | 167° |
| 2026-05-07 03:41 | 41.79053 | 12.60034 | 432 ft | 7 kts | 240° |
| 2026-05-07 03:41 | 41.79028 | 12.59963 | 430 ft | 6 kts | 250° |
| 2026-05-07 03:41 | 41.79013 | 12.59884 | 429 ft | 10 kts | 256° |
| 2026-05-07 03:42 | 41.78993 | 12.59831 | 428 ft | 4 kts | 204° |
| 2026-05-07 03:42 | 41.78959 | 12.59828 | 429 ft | 4 kts | 180° |
| 2026-05-07 03:42 | 41.78937 | 12.59829 | 431 ft | 1 kts | 176° |
| 2026-05-07 03:42 | 41.78932 | 12.59829 | 431 ft | 0 kts | 175° |
| 2026-05-07 03:43 | 41.78927 | 12.59829 | 431 ft | 0 kts | 175° |